sensor_id;sensor_type;location;lat;lon;timestamp;P1;durP1;ratioP1;P2;durP2;ratioP2
42886;SDS011;29032;56.028;92.904;2024-02-21T00:03:11;205.23;;;71.03;;
42886;SDS011;29032;56.028;92.904;2024-02-21T00:08:13;286.60;;;98.40;;
42886;SDS011;29032;56.028;92.904;2024-02-21T00:13:17;296.10;;;102.37;;
42886;SDS011;29032;56.028;92.904;2024-02-21T00:18:19;236.67;;;88.50;;
42886;SDS011;29032;56.028;92.904;2024-02-21T00:23:21;369.80;;;135.63;;
42886;SDS011;29032;56.028;92.904;2024-02-21T00:28:25;381.47;;;140.17;;
42886;SDS011;29032;56.028;92.904;2024-02-21T00:33:27;387.90;;;136.10;;
42886;SDS011;29032;56.028;92.904;2024-02-21T00:38:29;276.50;;;99.70;;
42886;SDS011;29032;56.028;92.904;2024-02-21T00:43:32;210.90;;;76.90;;
42886;SDS011;29032;56.028;92.904;2024-02-21T00:48:35;190.50;;;75.17;;
42886;SDS011;29032;56.028;92.904;2024-02-21T00:53:37;191.53;;;74.10;;
42886;SDS011;29032;56.028;92.904;2024-02-21T00:58:40;180.97;;;70.23;;
42886;SDS011;29032;56.028;92.904;2024-02-21T01:03:43;235.37;;;78.53;;
42886;SDS011;29032;56.028;92.904;2024-02-21T01:08:45;342.03;;;125.90;;
42886;SDS011;29032;56.028;92.904;2024-02-21T01:13:49;371.20;;;123.07;;
42886;SDS011;29032;56.028;92.904;2024-02-21T01:18:51;371.83;;;129.30;;
42886;SDS011;29032;56.028;92.904;2024-02-21T01:23:53;333.07;;;122.87;;
42886;SDS011;29032;56.028;92.904;2024-02-21T01:28:57;336.00;;;116.40;;
42886;SDS011;29032;56.028;92.904;2024-02-21T01:33:59;275.00;;;95.63;;
42886;SDS011;29032;56.028;92.904;2024-02-21T01:39:01;289.77;;;112.77;;
42886;SDS011;29032;56.028;92.904;2024-02-21T01:44:05;208.60;;;87.10;;
42886;SDS011;29032;56.028;92.904;2024-02-21T01:49:07;221.60;;;81.57;;
42886;SDS011;29032;56.028;92.904;2024-02-21T01:54:09;194.17;;;70.27;;
42886;SDS011;29032;56.028;92.904;2024-02-21T01:59:14;161.07;;;65.67;;
42886;SDS011;29032;56.028;92.904;2024-02-21T02:04:18;150.88;;;56.75;;
42886;SDS011;29032;56.028;92.904;2024-02-21T02:09:21;167.20;;;64.93;;
42886;SDS011;29032;56.028;92.904;2024-02-21T02:14:25;162.00;;;59.73;;
42886;SDS011;29032;56.028;92.904;2024-02-21T02:19:27;164.07;;;63.63;;
42886;SDS011;29032;56.028;92.904;2024-02-21T02:24:31;156.73;;;62.27;;
42886;SDS011;29032;56.028;92.904;2024-02-21T02:29:33;160.57;;;63.63;;
42886;SDS011;29032;56.028;92.904;2024-02-21T02:34:53;276.47;;;97.17;;
42886;SDS011;29032;56.028;92.904;2024-02-21T02:39:56;272.13;;;94.50;;
42886;SDS011;29032;56.028;92.904;2024-02-21T02:44:59;284.30;;;106.90;;
42886;SDS011;29032;56.028;92.904;2024-02-21T02:50:01;308.00;;;111.47;;
42886;SDS011;29032;56.028;92.904;2024-02-21T02:55:05;305.10;;;113.03;;
42886;SDS011;29032;56.028;92.904;2024-02-21T03:00:08;299.80;;;107.03;;
42886;SDS011;29032;56.028;92.904;2024-02-21T03:05:30;237.30;;;94.17;;
42886;SDS011;29032;56.028;92.904;2024-02-21T03:10:34;241.57;;;89.73;;
42886;SDS011;29032;56.028;92.904;2024-02-21T03:15:36;160.53;;;59.90;;
42886;SDS011;29032;56.028;92.904;2024-02-21T03:20:39;143.77;;;56.00;;
42886;SDS011;29032;56.028;92.904;2024-02-21T03:25:42;231.13;;;79.43;;
42886;SDS011;29032;56.028;92.904;2024-02-21T03:30:44;206.20;;;73.87;;
42886;SDS011;29032;56.028;92.904;2024-02-21T03:35:46;172.43;;;64.07;;
42886;SDS011;29032;56.028;92.904;2024-02-21T03:40:50;176.63;;;64.20;;
42886;SDS011;29032;56.028;92.904;2024-02-21T03:45:52;141.83;;;54.67;;
42886;SDS011;29032;56.028;92.904;2024-02-21T03:51:12;206.53;;;74.10;;
42886;SDS011;29032;56.028;92.904;2024-02-21T03:56:16;182.57;;;66.50;;
42886;SDS011;29032;56.028;92.904;2024-02-21T04:01:18;182.20;;;65.43;;
42886;SDS011;29032;56.028;92.904;2024-02-21T04:06:20;195.23;;;67.63;;
42886;SDS011;29032;56.028;92.904;2024-02-21T04:11:24;159.17;;;58.77;;
42886;SDS011;29032;56.028;92.904;2024-02-21T04:16:26;153.70;;;57.17;;
42886;SDS011;29032;56.028;92.904;2024-02-21T04:21:28;146.17;;;51.83;;
42886;SDS011;29032;56.028;92.904;2024-02-21T04:26:32;83.40;;;32.03;;
42886;SDS011;29032;56.028;92.904;2024-02-21T04:31:35;70.87;;;28.60;;
42886;SDS011;29032;56.028;92.904;2024-02-21T04:36:37;62.60;;;23.63;;
42886;SDS011;29032;56.028;92.904;2024-02-21T04:41:40;50.10;;;18.73;;
42886;SDS011;29032;56.028;92.904;2024-02-21T04:46:43;43.07;;;16.63;;
42886;SDS011;29032;56.028;92.904;2024-02-21T04:52:03;46.77;;;16.63;;
42886;SDS011;29032;56.028;92.904;2024-02-21T04:57:07;51.30;;;17.10;;
42886;SDS011;29032;56.028;92.904;2024-02-21T05:02:09;47.33;;;18.50;;
42886;SDS011;29032;56.028;92.904;2024-02-21T05:07:11;53.37;;;19.17;;
42886;SDS011;29032;56.028;92.904;2024-02-21T05:12:15;47.13;;;15.97;;
42886;SDS011;29032;56.028;92.904;2024-02-21T05:17:17;38.43;;;14.73;;
42886;SDS011;29032;56.028;92.904;2024-02-21T05:22:19;39.07;;;14.50;;
42886;SDS011;29032;56.028;92.904;2024-02-21T05:27:23;36.80;;;14.00;;
42886;SDS011;29032;56.028;92.904;2024-02-21T05:32:25;38.10;;;15.07;;
42886;SDS011;29032;56.028;92.904;2024-02-21T05:37:27;33.60;;;15.63;;
42886;SDS011;29032;56.028;92.904;2024-02-21T05:47:51;38.03;;;14.97;;
42886;SDS011;29032;56.028;92.904;2024-02-21T05:52:54;40.43;;;17.23;;
42886;SDS011;29032;56.028;92.904;2024-02-21T05:57:58;46.67;;;16.83;;
42886;SDS011;29032;56.028;92.904;2024-02-21T06:03:00;42.83;;;17.70;;
42886;SDS011;29032;56.028;92.904;2024-02-21T06:08:02;40.07;;;16.83;;
42886;SDS011;29032;56.028;92.904;2024-02-21T06:13:06;39.30;;;16.20;;
42886;SDS011;29032;56.028;92.904;2024-02-21T06:18:08;42.17;;;16.00;;
42886;SDS011;29032;56.028;92.904;2024-02-21T06:23:10;40.53;;;15.60;;
42886;SDS011;29032;56.028;92.904;2024-02-21T06:28:14;37.13;;;14.53;;
42886;SDS011;29032;56.028;92.904;2024-02-21T06:33:16;33.43;;;13.57;;
42886;SDS011;29032;56.028;92.904;2024-02-21T06:38:18;30.43;;;12.20;;
42886;SDS011;29032;56.028;92.904;2024-02-21T06:43:22;27.10;;;10.60;;
42886;SDS011;29032;56.028;92.904;2024-02-21T06:48:24;25.43;;;11.33;;
42886;SDS011;29032;56.028;92.904;2024-02-21T06:53:26;27.07;;;11.60;;
42886;SDS011;29032;56.028;92.904;2024-02-21T06:58:30;33.37;;;11.97;;
42886;SDS011;29032;56.028;92.904;2024-02-21T07:03:32;30.17;;;11.40;;
42886;SDS011;29032;56.028;92.904;2024-02-21T07:08:34;25.00;;;10.33;;
42886;SDS011;29032;56.028;92.904;2024-02-21T07:13:38;26.77;;;11.93;;
42886;SDS011;29032;56.028;92.904;2024-02-21T07:18:40;24.23;;;9.87;;
42886;SDS011;29032;56.028;92.904;2024-02-21T07:23:42;26.23;;;9.80;;
42886;SDS011;29032;56.028;92.904;2024-02-21T07:28:46;27.23;;;10.10;;
42886;SDS011;29032;56.028;92.904;2024-02-21T07:33:48;23.87;;;8.73;;
42886;SDS011;29032;56.028;92.904;2024-02-21T07:38:50;24.23;;;9.27;;
42886;SDS011;29032;56.028;92.904;2024-02-21T07:43:53;22.30;;;10.33;;
42886;SDS011;29032;56.028;92.904;2024-02-21T07:48:56;22.27;;;9.37;;
42886;SDS011;29032;56.028;92.904;2024-02-21T07:53:58;21.73;;;8.27;;
42886;SDS011;29032;56.028;92.904;2024-02-21T07:59:01;18.57;;;8.90;;
42886;SDS011;29032;56.028;92.904;2024-02-21T08:04:04;18.93;;;7.93;;
42886;SDS011;29032;56.028;92.904;2024-02-21T08:09:06;27.13;;;9.40;;
42886;SDS011;29032;56.028;92.904;2024-02-21T08:14:09;26.27;;;12.30;;
42886;SDS011;29032;56.028;92.904;2024-02-21T08:19:11;26.07;;;11.20;;
42886;SDS011;29032;56.028;92.904;2024-02-21T08:24:14;29.00;;;12.17;;
42886;SDS011;29032;56.028;92.904;2024-02-21T08:29:18;25.07;;;11.20;;
42886;SDS011;29032;56.028;92.904;2024-02-21T08:34:20;30.70;;;12.60;;
42886;SDS011;29032;56.028;92.904;2024-02-21T08:39:22;31.83;;;13.67;;
42886;SDS011;29032;56.028;92.904;2024-02-21T08:44:27;40.27;;;14.17;;
42886;SDS011;29032;56.028;92.904;2024-02-21T08:49:30;45.00;;;16.33;;
42886;SDS011;29032;56.028;92.904;2024-02-21T08:54:32;41.43;;;17.07;;
42886;SDS011;29032;56.028;92.904;2024-02-21T08:59:36;36.20;;;15.70;;
42886;SDS011;29032;56.028;92.904;2024-02-21T09:04:40;39.03;;;16.17;;
42886;SDS011;29032;56.028;92.904;2024-02-21T09:09:42;35.77;;;13.93;;
42886;SDS011;29032;56.028;92.904;2024-02-21T09:14:45;42.93;;;14.30;;
42886;SDS011;29032;56.028;92.904;2024-02-21T09:19:47;32.33;;;13.30;;
42886;SDS011;29032;56.028;92.904;2024-02-21T09:24:49;35.20;;;13.47;;
42886;SDS011;29032;56.028;92.904;2024-02-21T09:29:53;38.40;;;13.53;;
42886;SDS011;29032;56.028;92.904;2024-02-21T09:34:55;32.97;;;12.83;;
42886;SDS011;29032;56.028;92.904;2024-02-21T09:39:57;33.40;;;12.67;;
42886;SDS011;29032;56.028;92.904;2024-02-21T09:45:01;32.33;;;12.00;;
42886;SDS011;29032;56.028;92.904;2024-02-21T09:50:07;35.53;;;13.20;;
42886;SDS011;29032;56.028;92.904;2024-02-21T09:55:09;36.80;;;12.73;;
42886;SDS011;29032;56.028;92.904;2024-02-21T10:00:15;36.97;;;13.50;;
42886;SDS011;29032;56.028;92.904;2024-02-21T10:05:17;36.00;;;13.53;;
42886;SDS011;29032;56.028;92.904;2024-02-21T10:10:20;43.20;;;14.73;;
42886;SDS011;29032;56.028;92.904;2024-02-21T10:15:24;39.70;;;13.33;;
42886;SDS011;29032;56.028;92.904;2024-02-21T10:20:26;34.70;;;13.00;;
42886;SDS011;29032;56.028;92.904;2024-02-21T10:25:28;43.10;;;15.27;;
42886;SDS011;29032;56.028;92.904;2024-02-21T10:30:32;41.27;;;15.17;;
42886;SDS011;29032;56.028;92.904;2024-02-21T10:35:35;40.70;;;16.40;;
42886;SDS011;29032;56.028;92.904;2024-02-21T10:40:37;41.60;;;14.90;;
42886;SDS011;29032;56.028;92.904;2024-02-21T10:45:40;36.27;;;15.70;;
42886;SDS011;29032;56.028;92.904;2024-02-21T10:50:47;43.37;;;15.30;;
42886;SDS011;29032;56.028;92.904;2024-02-21T10:55:58;45.43;;;15.30;;
42886;SDS011;29032;56.028;92.904;2024-02-21T11:01:09;48.17;;;16.50;;
42886;SDS011;29032;56.028;92.904;2024-02-21T11:06:12;46.63;;;17.83;;
42886;SDS011;29032;56.028;92.904;2024-02-21T11:11:16;52.43;;;18.43;;
42886;SDS011;29032;56.028;92.904;2024-02-21T11:16:23;45.00;;;17.53;;
42886;SDS011;29032;56.028;92.904;2024-02-21T11:21:32;55.07;;;16.67;;
42886;SDS011;29032;56.028;92.904;2024-02-21T11:26:36;53.90;;;19.30;;
42886;SDS011;29032;56.028;92.904;2024-02-21T11:31:41;64.90;;;21.27;;
42886;SDS011;29032;56.028;92.904;2024-02-21T11:36:47;58.40;;;19.33;;
42886;SDS011;29032;56.028;92.904;2024-02-21T11:42:02;49.95;;;17.65;;
42886;SDS011;29032;56.028;92.904;2024-02-21T11:47:06;61.17;;;19.63;;
42886;SDS011;29032;56.028;92.904;2024-02-21T11:52:27;51.63;;;19.60;;
42886;SDS011;29032;56.028;92.904;2024-02-21T11:57:29;47.90;;;17.77;;
42886;SDS011;29032;56.028;92.904;2024-02-21T12:02:32;38.10;;;16.90;;
42886;SDS011;29032;56.028;92.904;2024-02-21T12:07:36;50.30;;;17.73;;
42886;SDS011;29032;56.028;92.904;2024-02-21T12:12:39;53.93;;;18.87;;
42886;SDS011;29032;56.028;92.904;2024-02-21T12:17:43;48.50;;;19.53;;
42886;SDS011;29032;56.028;92.904;2024-02-21T12:22:45;45.57;;;18.63;;
42886;SDS011;29032;56.028;92.904;2024-02-21T12:27:50;59.50;;;19.30;;
42886;SDS011;29032;56.028;92.904;2024-02-21T12:32:54;52.03;;;20.27;;
42886;SDS011;29032;56.028;92.904;2024-02-21T12:37:56;63.53;;;21.37;;
42886;SDS011;29032;56.028;92.904;2024-02-21T12:42:58;58.80;;;21.33;;
42886;SDS011;29032;56.028;92.904;2024-02-21T12:48:02;50.17;;;19.73;;
42886;SDS011;29032;56.028;92.904;2024-02-21T12:53:05;48.37;;;20.60;;
42886;SDS011;29032;56.028;92.904;2024-02-21T12:58:07;56.43;;;21.20;;
42886;SDS011;29032;56.028;92.904;2024-02-21T13:03:11;62.57;;;23.47;;
42886;SDS011;29032;56.028;92.904;2024-02-21T13:08:13;65.13;;;23.73;;
42886;SDS011;29032;56.028;92.904;2024-02-21T13:13:15;62.70;;;24.40;;
42886;SDS011;29032;56.028;92.904;2024-02-21T13:18:19;75.10;;;25.67;;
42886;SDS011;29032;56.028;92.904;2024-02-21T13:23:21;75.60;;;28.27;;
42886;SDS011;29032;56.028;92.904;2024-02-21T13:28:23;77.50;;;26.90;;
42886;SDS011;29032;56.028;92.904;2024-02-21T13:33:27;79.83;;;27.87;;
42886;SDS011;29032;56.028;92.904;2024-02-21T13:38:29;72.90;;;27.30;;
42886;SDS011;29032;56.028;92.904;2024-02-21T13:43:31;67.50;;;24.37;;
42886;SDS011;29032;56.028;92.904;2024-02-21T13:48:35;78.40;;;29.27;;
42886;SDS011;29032;56.028;92.904;2024-02-21T13:53:37;110.23;;;37.20;;
42886;SDS011;29032;56.028;92.904;2024-02-21T13:58:39;123.40;;;41.63;;
42886;SDS011;29032;56.028;92.904;2024-02-21T14:03:43;184.07;;;60.27;;
42886;SDS011;29032;56.028;92.904;2024-02-21T14:08:45;204.07;;;71.60;;
42886;SDS011;29032;56.028;92.904;2024-02-21T14:13:47;243.00;;;80.77;;
42886;SDS011;29032;56.028;92.904;2024-02-21T14:18:51;304.37;;;98.57;;
42886;SDS011;29032;56.028;92.904;2024-02-21T14:23:53;294.37;;;90.30;;
42886;SDS011;29032;56.028;92.904;2024-02-21T14:28:55;222.53;;;77.57;;
42886;SDS011;29032;56.028;92.904;2024-02-21T14:33:59;298.33;;;99.33;;
42886;SDS011;29032;56.028;92.904;2024-02-21T14:39:01;287.03;;;101.00;;
42886;SDS011;29032;56.028;92.904;2024-02-21T14:44:03;262.80;;;91.00;;
42886;SDS011;29032;56.028;92.904;2024-02-21T14:49:07;229.10;;;80.07;;
42886;SDS011;29032;56.028;92.904;2024-02-21T14:54:09;263.40;;;81.87;;
42886;SDS011;29032;56.028;92.904;2024-02-21T14:59:11;226.53;;;74.97;;
42886;SDS011;29032;56.028;92.904;2024-02-21T15:04:15;170.80;;;66.53;;
42886;SDS011;29032;56.028;92.904;2024-02-21T15:09:17;157.90;;;52.50;;
42886;SDS011;29032;56.028;92.904;2024-02-21T15:14:19;188.80;;;64.03;;
42886;SDS011;29032;56.028;92.904;2024-02-21T15:19:23;183.07;;;64.10;;
42886;SDS011;29032;56.028;92.904;2024-02-21T15:24:25;161.70;;;58.07;;
42886;SDS011;29032;56.028;92.904;2024-02-21T15:29:28;168.07;;;53.40;;
42886;SDS011;29032;56.028;92.904;2024-02-21T15:34:31;157.63;;;53.53;;
42886;SDS011;29032;56.028;92.904;2024-02-21T15:39:33;153.87;;;50.07;;
42886;SDS011;29032;56.028;92.904;2024-02-21T15:44:36;158.57;;;53.33;;
42886;SDS011;29032;56.028;92.904;2024-02-21T15:49:39;156.00;;;47.90;;
42886;SDS011;29032;56.028;92.904;2024-02-21T15:54:41;129.33;;;45.10;;
42886;SDS011;29032;56.028;92.904;2024-02-21T15:59:44;118.03;;;43.10;;
42886;SDS011;29032;56.028;92.904;2024-02-21T16:04:49;128.07;;;41.20;;
42886;SDS011;29032;56.028;92.904;2024-02-21T16:09:51;168.33;;;51.93;;
42886;SDS011;29032;56.028;92.904;2024-02-21T16:14:53;167.93;;;51.83;;
42886;SDS011;29032;56.028;92.904;2024-02-21T16:19:57;179.27;;;49.37;;
42886;SDS011;29032;56.028;92.904;2024-02-21T16:24:59;178.77;;;50.77;;
42886;SDS011;29032;56.028;92.904;2024-02-21T16:30:02;187.27;;;55.37;;
42886;SDS011;29032;56.028;92.904;2024-02-21T16:35:06;244.13;;;70.77;;
42886;SDS011;29032;56.028;92.904;2024-02-21T16:40:09;223.93;;;65.60;;
42886;SDS011;29032;56.028;92.904;2024-02-21T16:45:29;242.87;;;72.50;;
42886;SDS011;29032;56.028;92.904;2024-02-21T16:50:33;186.13;;;61.20;;
42886;SDS011;29032;56.028;92.904;2024-02-21T16:55:35;160.63;;;51.70;;
42886;SDS011;29032;56.028;92.904;2024-02-21T17:00:37;180.20;;;58.67;;
42886;SDS011;29032;56.028;92.904;2024-02-21T17:05:41;186.90;;;58.27;;
42886;SDS011;29032;56.028;92.904;2024-02-21T17:10:43;153.43;;;53.93;;
42886;SDS011;29032;56.028;92.904;2024-02-21T17:15:45;126.80;;;41.13;;
42886;SDS011;29032;56.028;92.904;2024-02-21T17:20:49;121.60;;;39.23;;
42886;SDS011;29032;56.028;92.904;2024-02-21T17:25:51;102.60;;;35.10;;
42886;SDS011;29032;56.028;92.904;2024-02-21T17:30:57;116.97;;;37.03;;
42886;SDS011;29032;56.028;92.904;2024-02-21T17:36:01;122.37;;;37.17;;
42886;SDS011;29032;56.028;92.904;2024-02-21T17:41:03;117.97;;;40.63;;
42886;SDS011;29032;56.028;92.904;2024-02-21T17:46:05;134.37;;;42.03;;
42886;SDS011;29032;56.028;92.904;2024-02-21T17:51:09;127.60;;;41.23;;
42886;SDS011;29032;56.028;92.904;2024-02-21T17:56:13;105.27;;;36.63;;
42886;SDS011;29032;56.028;92.904;2024-02-21T18:01:15;133.27;;;38.13;;
42886;SDS011;29032;56.028;92.904;2024-02-21T18:06:19;105.83;;;35.60;;
42886;SDS011;29032;56.028;92.904;2024-02-21T18:11:21;88.00;;;28.63;;
42886;SDS011;29032;56.028;92.904;2024-02-21T18:16:23;79.37;;;27.43;;
42886;SDS011;29032;56.028;92.904;2024-02-21T18:21:27;65.60;;;25.03;;
42886;SDS011;29032;56.028;92.904;2024-02-21T18:26:29;55.07;;;21.77;;
42886;SDS011;29032;56.028;92.904;2024-02-21T18:31:31;71.10;;;25.87;;
42886;SDS011;29032;56.028;92.904;2024-02-21T18:36:34;66.77;;;23.00;;
42886;SDS011;29032;56.028;92.904;2024-02-21T18:41:40;69.22;;;24.38;;
42886;SDS011;29032;56.028;92.904;2024-02-21T18:46:42;57.63;;;21.67;;
42886;SDS011;29032;56.028;92.904;2024-02-21T18:51:46;65.07;;;25.00;;
42886;SDS011;29032;56.028;92.904;2024-02-21T18:56:48;75.23;;;26.27;;
42886;SDS011;29032;56.028;92.904;2024-02-21T19:01:50;54.93;;;21.73;;
42886;SDS011;29032;56.028;92.904;2024-02-21T19:06:54;59.97;;;22.60;;
42886;SDS011;29032;56.028;92.904;2024-02-21T19:11:56;63.03;;;21.73;;
42886;SDS011;29032;56.028;92.904;2024-02-21T19:16:58;68.43;;;24.77;;
42886;SDS011;29032;56.028;92.904;2024-02-21T19:22:02;65.87;;;26.33;;
42886;SDS011;29032;56.028;92.904;2024-02-21T19:27:04;92.77;;;31.37;;
42886;SDS011;29032;56.028;92.904;2024-02-21T19:32:06;100.13;;;30.50;;
42886;SDS011;29032;56.028;92.904;2024-02-21T19:37:10;105.27;;;36.63;;
42886;SDS011;29032;56.028;92.904;2024-02-21T19:42:12;82.30;;;32.80;;
42886;SDS011;29032;56.028;92.904;2024-02-21T19:47:14;101.13;;;33.67;;
42886;SDS011;29032;56.028;92.904;2024-02-21T19:52:18;100.67;;;32.43;;
42886;SDS011;29032;56.028;92.904;2024-02-21T19:57:20;95.90;;;34.17;;
42886;SDS011;29032;56.028;92.904;2024-02-21T20:02:22;86.90;;;31.47;;
42886;SDS011;29032;56.028;92.904;2024-02-21T20:07:26;97.90;;;31.97;;
42886;SDS011;29032;56.028;92.904;2024-02-21T20:12:28;89.30;;;32.00;;
42886;SDS011;29032;56.028;92.904;2024-02-21T20:17:30;90.07;;;31.00;;
42886;SDS011;29032;56.028;92.904;2024-02-21T20:22:34;85.47;;;31.03;;
42886;SDS011;29032;56.028;92.904;2024-02-21T20:27:36;75.77;;;26.30;;
42886;SDS011;29032;56.028;92.904;2024-02-21T20:32:38;100.47;;;31.97;;
42886;SDS011;29032;56.028;92.904;2024-02-21T20:37:42;89.77;;;28.40;;
42886;SDS011;29032;56.028;92.904;2024-02-21T20:42:44;104.57;;;30.77;;
42886;SDS011;29032;56.028;92.904;2024-02-21T20:47:46;99.43;;;32.20;;
42886;SDS011;29032;56.028;92.904;2024-02-21T20:52:50;93.93;;;29.73;;
42886;SDS011;29032;56.028;92.904;2024-02-21T20:57:52;76.30;;;28.37;;
42886;SDS011;29032;56.028;92.904;2024-02-21T21:02:54;85.90;;;26.53;;
42886;SDS011;29032;56.028;92.904;2024-02-21T21:07:58;91.70;;;30.37;;
42886;SDS011;29032;56.028;92.904;2024-02-21T21:13:01;99.20;;;35.00;;
42886;SDS011;29032;56.028;92.904;2024-02-21T21:18:04;97.60;;;33.60;;
42886;SDS011;29032;56.028;92.904;2024-02-21T21:23:08;99.10;;;33.20;;
42886;SDS011;29032;56.028;92.904;2024-02-21T21:28:10;100.13;;;33.93;;
42886;SDS011;29032;56.028;92.904;2024-02-21T21:33:12;102.70;;;34.00;;
42886;SDS011;29032;56.028;92.904;2024-02-21T21:38:16;99.03;;;36.23;;
42886;SDS011;29032;56.028;92.904;2024-02-21T21:43:19;104.53;;;35.90;;
42886;SDS011;29032;56.028;92.904;2024-02-21T21:48:22;110.53;;;36.60;;
42886;SDS011;29032;56.028;92.904;2024-02-21T21:53:26;107.87;;;33.17;;
42886;SDS011;29032;56.028;92.904;2024-02-21T21:58:28;143.67;;;39.50;;
42886;SDS011;29032;56.028;92.904;2024-02-21T22:03:31;132.77;;;44.63;;
42886;SDS011;29032;56.028;92.904;2024-02-21T22:08:34;177.57;;;57.63;;
42886;SDS011;29032;56.028;92.904;2024-02-21T22:13:36;214.20;;;66.47;;
42886;SDS011;29032;56.028;92.904;2024-02-21T22:18:38;190.30;;;66.27;;
42886;SDS011;29032;56.028;92.904;2024-02-21T22:23:44;167.60;;;60.80;;
42886;SDS011;29032;56.028;92.904;2024-02-21T22:28:46;193.27;;;66.30;;
42886;SDS011;29032;56.028;92.904;2024-02-21T22:33:48;152.67;;;56.87;;
42886;SDS011;29032;56.028;92.904;2024-02-21T22:38:52;104.47;;;40.47;;
42886;SDS011;29032;56.028;92.904;2024-02-21T22:43:54;131.57;;;49.70;;
42886;SDS011;29032;56.028;92.904;2024-02-21T22:48:56;96.13;;;39.10;;
42886;SDS011;29032;56.028;92.904;2024-02-21T22:54:00;115.00;;;40.90;;
42886;SDS011;29032;56.028;92.904;2024-02-21T22:59:02;104.43;;;39.33;;
42886;SDS011;29032;56.028;92.904;2024-02-21T23:04:04;144.07;;;53.73;;
42886;SDS011;29032;56.028;92.904;2024-02-21T23:09:08;117.53;;;46.13;;
42886;SDS011;29032;56.028;92.904;2024-02-21T23:14:10;102.83;;;41.27;;
42886;SDS011;29032;56.028;92.904;2024-02-21T23:19:12;89.37;;;34.27;;
42886;SDS011;29032;56.028;92.904;2024-02-21T23:24:16;83.67;;;33.17;;
42886;SDS011;29032;56.028;92.904;2024-02-21T23:29:18;64.93;;;27.50;;
42886;SDS011;29032;56.028;92.904;2024-02-21T23:34:20;61.63;;;25.60;;
42886;SDS011;29032;56.028;92.904;2024-02-21T23:39:24;61.63;;;24.70;;
42886;SDS011;29032;56.028;92.904;2024-02-21T23:44:26;62.17;;;24.80;;
42886;SDS011;29032;56.028;92.904;2024-02-21T23:49:28;69.60;;;27.63;;
42886;SDS011;29032;56.028;92.904;2024-02-21T23:59:52;62.27;;;23.40;;
